« Back
NWS Peachtree City, Ga » Text Product » ATL Terminal Aerodrome Forecast


Printer-friendly Version
Current Version              Previous Versions:   1  2  3  4  5  6  7  8  9  

Terminal Aerodrome Forecast

700
FTUS42 KFFC 221300 AAA
TAFATL
TAF AMD
KATL 221356Z 2214/2318 32010G16KT P6SM FEW080 SCT250
     FM222300 35009KT P6SM FEW060
     FM230400 02008KT P6SM BKN050
     FM231400 08012G20KT P6SM SCT050=



USA.gov is the U.S. government's official web portal to all federal, state and local government web resources and services.